Thurles, Ireland
Current Conditions -  °F | °C
As of 8:30 AM on Sunday 26 Oct 2014 (Local Time) from EIWF Reporting Station
Broken Clouds Broken Clouds  
Wind Chill: 13°   Ceiling: 3500
Heat Index: 13°   Visibility: 6mi
Dew Point:   Wind: 28mph
Humidity: 77%   Direction: 250°WSW
Pressure: 29.94"   Gusts: NA
Location:  52.68°N, 7.48°W
Report Text: EIWF 260730Z 25024KT 210V290 9999 SCT022 BKN035 13/09 Q1014
Loading
Personal Weather Stations






























Interactive Weather Map
Tropical Storm Tracking
New forecast layout! Learn more

10-Day Weather Forecast

Advertisements
Track Severe Weather on mobile